sensor_id;sensor_type;location;lat;lon;timestamp;temperature;humidity
21353;DHT22;10834;52.268;6.770;2022-12-07T00:01:35;4.40;99.90
21353;DHT22;10834;52.268;6.770;2022-12-07T00:04:22;4.30;99.90
21353;DHT22;10834;52.268;6.770;2022-12-07T00:07:08;4.20;99.90
21353;DHT22;10834;52.268;6.770;2022-12-07T00:09:54;4.10;99.90
21353;DHT22;10834;52.268;6.770;2022-12-07T00:12:40;4.10;99.90
21353;DHT22;10834;52.268;6.770;2022-12-07T00:15:26;4.10;99.90
21353;DHT22;10834;52.268;6.770;2022-12-07T00:18:12;4.00;99.90
21353;DHT22;10834;52.268;6.770;2022-12-07T00:21:03;4.00;99.90
21353;DHT22;10834;52.268;6.770;2022-12-07T00:23:50;3.90;99.90
21353;DHT22;10834;52.268;6.770;2022-12-07T00:26:38;3.90;99.90
21353;DHT22;10834;52.268;6.770;2022-12-07T00:29:25;3.90;99.90
21353;DHT22;10834;52.268;6.770;2022-12-07T00:32:11;3.80;99.90
21353;DHT22;10834;52.268;6.770;2022-12-07T00:34:57;3.80;99.90
21353;DHT22;10834;52.268;6.770;2022-12-07T00:37:43;3.70;99.90
21353;DHT22;10834;52.268;6.770;2022-12-07T00:40:29;3.70;99.90
21353;DHT22;10834;52.268;6.770;2022-12-07T00:43:15;3.60;99.90
21353;DHT22;10834;52.268;6.770;2022-12-07T00:46:01;3.60;99.90
21353;DHT22;10834;52.268;6.770;2022-12-07T00:48:48;3.50;99.90
21353;DHT22;10834;52.268;6.770;2022-12-07T00:51:34;3.50;99.90
21353;DHT22;10834;52.268;6.770;2022-12-07T00:54:20;3.50;99.90
21353;DHT22;10834;52.268;6.770;2022-12-07T00:57:06;3.40;99.90
21353;DHT22;10834;52.268;6.770;2022-12-07T00:59:52;3.40;99.90
21353;DHT22;10834;52.268;6.770;2022-12-07T01:02:41;3.40;99.90
21353;DHT22;10834;52.268;6.770;2022-12-07T01:05:27;3.40;99.90
21353;DHT22;10834;52.268;6.770;2022-12-07T01:08:13;3.40;99.90
21353;DHT22;10834;52.268;6.770;2022-12-07T01:11:05;3.30;99.90
21353;DHT22;10834;52.268;6.770;2022-12-07T01:13:52;3.30;99.90
21353;DHT22;10834;52.268;6.770;2022-12-07T01:16:39;3.30;99.90
21353;DHT22;10834;52.268;6.770;2022-12-07T01:19:25;3.20;99.90
21353;DHT22;10834;52.268;6.770;2022-12-07T01:22:12;3.20;99.90
21353;DHT22;10834;52.268;6.770;2022-12-07T01:24:59;3.20;99.90
21353;DHT22;10834;52.268;6.770;2022-12-07T01:27:45;3.20;99.90
21353;DHT22;10834;52.268;6.770;2022-12-07T01:30:31;3.10;99.90
21353;DHT22;10834;52.268;6.770;2022-12-07T01:33:17;3.10;99.90
21353;DHT22;10834;52.268;6.770;2022-12-07T01:39:01;3.10;99.90
21353;DHT22;10834;52.268;6.770;2022-12-07T01:41:48;3.00;99.90
21353;DHT22;10834;52.268;6.770;2022-12-07T01:47:59;2.90;99.90
21353;DHT22;10834;52.268;6.770;2022-12-07T01:50:47;3.00;99.90
21353;DHT22;10834;52.268;6.770;2022-12-07T01:53:36;3.00;99.90
21353;DHT22;10834;52.268;6.770;2022-12-07T01:56:26;3.10;99.90
21353;DHT22;10834;52.268;6.770;2022-12-07T01:59:13;3.10;99.90
21353;DHT22;10834;52.268;6.770;2022-12-07T02:02:02;3.20;99.90
21353;DHT22;10834;52.268;6.770;2022-12-07T02:04:52;3.20;99.90
21353;DHT22;10834;52.268;6.770;2022-12-07T02:07:38;3.10;99.90
21353;DHT22;10834;52.268;6.770;2022-12-07T02:10:29;3.00;99.90
21353;DHT22;10834;52.268;6.770;2022-12-07T02:13:24;3.00;99.90
21353;DHT22;10834;52.268;6.770;2022-12-07T02:16:21;2.90;99.90
21353;DHT22;10834;52.268;6.770;2022-12-07T02:19:39;2.90;99.90
21353;DHT22;10834;52.268;6.770;2022-12-07T02:28:48;2.80;99.90
21353;DHT22;10834;52.268;6.770;2022-12-07T02:31:38;2.80;99.90
21353;DHT22;10834;52.268;6.770;2022-12-07T02:34:39;2.70;99.90
21353;DHT22;10834;52.268;6.770;2022-12-07T02:40:22;2.80;99.90
21353;DHT22;10834;52.268;6.770;2022-12-07T02:43:26;3.00;99.90
21353;DHT22;10834;52.268;6.770;2022-12-07T02:46:22;3.10;99.90
21353;DHT22;10834;52.268;6.770;2022-12-07T02:49:10;3.30;99.90
21353;DHT22;10834;52.268;6.770;2022-12-07T02:51:56;3.30;99.90
21353;DHT22;10834;52.268;6.770;2022-12-07T02:54:42;3.30;99.90
21353;DHT22;10834;52.268;6.770;2022-12-07T03:00:16;3.30;99.90
21353;DHT22;10834;52.268;6.770;2022-12-07T03:03:14;3.20;99.90
21353;DHT22;10834;52.268;6.770;2022-12-07T03:06:11;3.10;99.90
21353;DHT22;10834;52.268;6.770;2022-12-07T03:09:20;3.10;99.90
21353;DHT22;10834;52.268;6.770;2022-12-07T03:12:15;3.10;99.90
21353;DHT22;10834;52.268;6.770;2022-12-07T03:15:13;3.10;99.90
21353;DHT22;10834;52.268;6.770;2022-12-07T03:18:01;3.20;99.90
21353;DHT22;10834;52.268;6.770;2022-12-07T03:20:51;3.20;99.90
21353;DHT22;10834;52.268;6.770;2022-12-07T03:23:40;3.20;99.90
21353;DHT22;10834;52.268;6.770;2022-12-07T03:26:32;3.10;99.90
21353;DHT22;10834;52.268;6.770;2022-12-07T03:29:28;3.20;99.90
21353;DHT22;10834;52.268;6.770;2022-12-07T03:32:41;3.20;99.90
21353;DHT22;10834;52.268;6.770;2022-12-07T03:35:39;3.20;99.90
21353;DHT22;10834;52.268;6.770;2022-12-07T03:41:30;3.00;99.90
21353;DHT22;10834;52.268;6.770;2022-12-07T03:44:17;2.90;99.90
21353;DHT22;10834;52.268;6.770;2022-12-07T03:47:13;3.00;99.90
21353;DHT22;10834;52.268;6.770;2022-12-07T03:50:25;2.90;99.90
21353;DHT22;10834;52.268;6.770;2022-12-07T03:53:20;2.90;99.90
21353;DHT22;10834;52.268;6.770;2022-12-07T03:56:08;2.80;99.90
21353;DHT22;10834;52.268;6.770;2022-12-07T03:58:55;2.80;99.90
21353;DHT22;10834;52.268;6.770;2022-12-07T04:01:43;2.70;99.90
21353;DHT22;10834;52.268;6.770;2022-12-07T04:04:30;2.70;99.90
21353;DHT22;10834;52.268;6.770;2022-12-07T04:07:16;2.70;99.90
21353;DHT22;10834;52.268;6.770;2022-12-07T04:10:03;2.70;99.90
21353;DHT22;10834;52.268;6.770;2022-12-07T04:12:49;2.70;99.90
21353;DHT22;10834;52.268;6.770;2022-12-07T04:15:35;2.80;99.90
21353;DHT22;10834;52.268;6.770;2022-12-07T04:18:21;2.90;99.90
21353;DHT22;10834;52.268;6.770;2022-12-07T04:21:07;3.00;99.90
21353;DHT22;10834;52.268;6.770;2022-12-07T04:23:53;3.10;99.90
21353;DHT22;10834;52.268;6.770;2022-12-07T04:26:40;3.10;99.90
21353;DHT22;10834;52.268;6.770;2022-12-07T04:29:27;3.10;99.90
21353;DHT22;10834;52.268;6.770;2022-12-07T04:32:13;3.20;99.90
21353;DHT22;10834;52.268;6.770;2022-12-07T04:34:59;3.20;99.90
21353;DHT22;10834;52.268;6.770;2022-12-07T04:37:45;3.20;99.90
21353;DHT22;10834;52.268;6.770;2022-12-07T04:40:31;3.20;99.90
21353;DHT22;10834;52.268;6.770;2022-12-07T04:43:17;3.10;99.90
21353;DHT22;10834;52.268;6.770;2022-12-07T04:46:03;3.10;99.90
21353;DHT22;10834;52.268;6.770;2022-12-07T04:48:50;3.00;99.90
21353;DHT22;10834;52.268;6.770;2022-12-07T04:51:36;3.00;99.90
21353;DHT22;10834;52.268;6.770;2022-12-07T04:54:22;2.90;99.90
21353;DHT22;10834;52.268;6.770;2022-12-07T04:57:08;2.80;99.90
21353;DHT22;10834;52.268;6.770;2022-12-07T04:59:54;2.80;99.90
21353;DHT22;10834;52.268;6.770;2022-12-07T05:02:40;2.70;99.90
21353;DHT22;10834;52.268;6.770;2022-12-07T05:05:27;2.60;99.90
21353;DHT22;10834;52.268;6.770;2022-12-07T05:08:13;2.60;99.90
21353;DHT22;10834;52.268;6.770;2022-12-07T05:10:59;2.60;99.90
21353;DHT22;10834;52.268;6.770;2022-12-07T05:13:45;2.60;99.90
21353;DHT22;10834;52.268;6.770;2022-12-07T05:16:32;2.70;99.90
21353;DHT22;10834;52.268;6.770;2022-12-07T05:19:18;2.70;99.90
21353;DHT22;10834;52.268;6.770;2022-12-07T05:22:05;2.60;99.90
21353;DHT22;10834;52.268;6.770;2022-12-07T05:24:51;2.60;99.90
21353;DHT22;10834;52.268;6.770;2022-12-07T05:27:37;2.50;99.90
21353;DHT22;10834;52.268;6.770;2022-12-07T05:30:23;2.50;99.90
21353;DHT22;10834;52.268;6.770;2022-12-07T05:33:10;2.50;99.90
21353;DHT22;10834;52.268;6.770;2022-12-07T05:35:56;2.40;99.90
21353;DHT22;10834;52.268;6.770;2022-12-07T05:38:42;2.40;99.90
21353;DHT22;10834;52.268;6.770;2022-12-07T05:41:28;2.40;99.90
21353;DHT22;10834;52.268;6.770;2022-12-07T05:44:32;2.40;99.90
21353;DHT22;10834;52.268;6.770;2022-12-07T05:47:18;2.30;99.90
21353;DHT22;10834;52.268;6.770;2022-12-07T05:50:06;2.30;99.90
21353;DHT22;10834;52.268;6.770;2022-12-07T05:52:52;2.30;99.90
21353;DHT22;10834;52.268;6.770;2022-12-07T05:55:38;2.30;99.90
21353;DHT22;10834;52.268;6.770;2022-12-07T05:58:24;2.30;99.90
21353;DHT22;10834;52.268;6.770;2022-12-07T06:01:28;2.40;99.90
21353;DHT22;10834;52.268;6.770;2022-12-07T06:04:15;2.40;99.90
21353;DHT22;10834;52.268;6.770;2022-12-07T06:07:01;2.50;99.90
21353;DHT22;10834;52.268;6.770;2022-12-07T06:09:47;2.60;99.90
21353;DHT22;10834;52.268;6.770;2022-12-07T06:12:33;2.50;99.90
21353;DHT22;10834;52.268;6.770;2022-12-07T06:15:19;2.50;99.90
21353;DHT22;10834;52.268;6.770;2022-12-07T06:18:06;2.50;99.90
21353;DHT22;10834;52.268;6.770;2022-12-07T06:20:52;2.40;99.90
21353;DHT22;10834;52.268;6.770;2022-12-07T06:23:38;2.40;99.90
21353;DHT22;10834;52.268;6.770;2022-12-07T06:26:24;2.30;99.90
21353;DHT22;10834;52.268;6.770;2022-12-07T06:29:11;2.30;99.90
21353;DHT22;10834;52.268;6.770;2022-12-07T06:31:57;2.30;99.90
21353;DHT22;10834;52.268;6.770;2022-12-07T06:34:44;2.20;99.90
21353;DHT22;10834;52.268;6.770;2022-12-07T06:37:30;2.20;99.90
21353;DHT22;10834;52.268;6.770;2022-12-07T06:40:16;2.20;99.90
21353;DHT22;10834;52.268;6.770;2022-12-07T06:43:02;2.10;99.90
21353;DHT22;10834;52.268;6.770;2022-12-07T06:45:48;2.20;99.90
21353;DHT22;10834;52.268;6.770;2022-12-07T06:48:34;2.20;99.90
21353;DHT22;10834;52.268;6.770;2022-12-07T06:51:20;2.30;99.90
21353;DHT22;10834;52.268;6.770;2022-12-07T06:54:11;2.20;99.90
21353;DHT22;10834;52.268;6.770;2022-12-07T06:56:57;2.20;99.90
21353;DHT22;10834;52.268;6.770;2022-12-07T06:59:43;2.20;99.90
21353;DHT22;10834;52.268;6.770;2022-12-07T07:02:29;2.10;99.90
21353;DHT22;10834;52.268;6.770;2022-12-07T07:05:15;2.00;99.90
21353;DHT22;10834;52.268;6.770;2022-12-07T07:08:02;2.00;99.90
21353;DHT22;10834;52.268;6.770;2022-12-07T07:10:48;2.00;99.90
21353;DHT22;10834;52.268;6.770;2022-12-07T07:13:35;2.00;99.90
21353;DHT22;10834;52.268;6.770;2022-12-07T07:16:21;1.90;99.90
21353;DHT22;10834;52.268;6.770;2022-12-07T07:19:07;1.90;99.90
21353;DHT22;10834;52.268;6.770;2022-12-07T07:21:53;1.90;99.90
21353;DHT22;10834;52.268;6.770;2022-12-07T07:24:39;2.00;99.90
21353;DHT22;10834;52.268;6.770;2022-12-07T07:27:25;2.20;99.90
21353;DHT22;10834;52.268;6.770;2022-12-07T07:30:12;2.20;99.90
21353;DHT22;10834;52.268;6.770;2022-12-07T07:32:59;2.30;99.90
21353;DHT22;10834;52.268;6.770;2022-12-07T07:35:46;2.30;99.90
21353;DHT22;10834;52.268;6.770;2022-12-07T07:38:32;2.30;99.90
21353;DHT22;10834;52.268;6.770;2022-12-07T07:41:18;2.40;99.90
21353;DHT22;10834;52.268;6.770;2022-12-07T07:44:04;2.50;99.90
21353;DHT22;10834;52.268;6.770;2022-12-07T07:46:50;2.60;99.90
21353;DHT22;10834;52.268;6.770;2022-12-07T07:49:36;2.70;99.90
21353;DHT22;10834;52.268;6.770;2022-12-07T07:52:22;2.70;99.90
21353;DHT22;10834;52.268;6.770;2022-12-07T07:55:09;2.80;99.90
21353;DHT22;10834;52.268;6.770;2022-12-07T07:57:55;2.90;99.90
21353;DHT22;10834;52.268;6.770;2022-12-07T08:00:41;3.00;99.90
21353;DHT22;10834;52.268;6.770;2022-12-07T08:03:27;3.00;99.90
21353;DHT22;10834;52.268;6.770;2022-12-07T08:06:13;3.00;99.90
21353;DHT22;10834;52.268;6.770;2022-12-07T08:08:59;2.90;99.90
21353;DHT22;10834;52.268;6.770;2022-12-07T08:11:45;2.90;99.90
21353;DHT22;10834;52.268;6.770;2022-12-07T08:14:31;2.80;99.90
21353;DHT22;10834;52.268;6.770;2022-12-07T08:17:18;2.80;99.90
21353;DHT22;10834;52.268;6.770;2022-12-07T08:20:04;2.90;99.90
21353;DHT22;10834;52.268;6.770;2022-12-07T08:22:51;2.80;99.90
21353;DHT22;10834;52.268;6.770;2022-12-07T08:25:37;2.80;99.90
21353;DHT22;10834;52.268;6.770;2022-12-07T08:28:23;2.70;99.90
21353;DHT22;10834;52.268;6.770;2022-12-07T08:31:16;2.70;99.90
21353;DHT22;10834;52.268;6.770;2022-12-07T08:34:02;2.70;99.90
21353;DHT22;10834;52.268;6.770;2022-12-07T08:36:48;2.80;99.90
21353;DHT22;10834;52.268;6.770;2022-12-07T08:39:35;3.00;99.90
21353;DHT22;10834;52.268;6.770;2022-12-07T08:42:21;3.00;99.90
21353;DHT22;10834;52.268;6.770;2022-12-07T08:45:11;3.00;99.90
21353;DHT22;10834;52.268;6.770;2022-12-07T08:48:04;3.10;99.90
21353;DHT22;10834;52.268;6.770;2022-12-07T08:50:52;3.10;99.90
21353;DHT22;10834;52.268;6.770;2022-12-07T08:53:38;3.10;99.90
21353;DHT22;10834;52.268;6.770;2022-12-07T08:56:25;3.10;99.90
21353;DHT22;10834;52.268;6.770;2022-12-07T08:59:14;3.20;99.90
21353;DHT22;10834;52.268;6.770;2022-12-07T09:02:03;3.30;99.90
21353;DHT22;10834;52.268;6.770;2022-12-07T09:04:50;3.40;99.90
21353;DHT22;10834;52.268;6.770;2022-12-07T09:07:36;3.50;99.90
21353;DHT22;10834;52.268;6.770;2022-12-07T09:10:23;3.50;99.90
21353;DHT22;10834;52.268;6.770;2022-12-07T09:13:09;3.60;99.90
21353;DHT22;10834;52.268;6.770;2022-12-07T09:15:55;3.80;99.90
21353;DHT22;10834;52.268;6.770;2022-12-07T09:18:41;4.00;99.90
21353;DHT22;10834;52.268;6.770;2022-12-07T09:21:27;4.30;99.90
21353;DHT22;10834;52.268;6.770;2022-12-07T09:24:13;4.50;99.90
21353;DHT22;10834;52.268;6.770;2022-12-07T09:26:59;5.00;99.90
21353;DHT22;10834;52.268;6.770;2022-12-07T09:29:46;5.20;99.90
21353;DHT22;10834;52.268;6.770;2022-12-07T09:32:32;5.70;99.90
21353;DHT22;10834;52.268;6.770;2022-12-07T09:35:18;5.60;99.90
21353;DHT22;10834;52.268;6.770;2022-12-07T09:38:04;6.20;99.90
21353;DHT22;10834;52.268;6.770;2022-12-07T09:40:50;6.00;99.90
21353;DHT22;10834;52.268;6.770;2022-12-07T09:43:39;6.30;99.90
21353;DHT22;10834;52.268;6.770;2022-12-07T09:46:25;6.70;99.90
21353;DHT22;10834;52.268;6.770;2022-12-07T09:49:20;6.50;99.90
21353;DHT22;10834;52.268;6.770;2022-12-07T09:54:55;5.80;99.90
21353;DHT22;10834;52.268;6.770;2022-12-07T09:57:42;5.60;99.90
21353;DHT22;10834;52.268;6.770;2022-12-07T10:00:29;5.40;99.90
21353;DHT22;10834;52.268;6.770;2022-12-07T10:03:15;5.30;99.90
21353;DHT22;10834;52.268;6.770;2022-12-07T10:06:02;5.30;99.90
21353;DHT22;10834;52.268;6.770;2022-12-07T10:08:48;5.30;99.90
21353;DHT22;10834;52.268;6.770;2022-12-07T10:11:34;5.20;99.90
21353;DHT22;10834;52.268;6.770;2022-12-07T10:14:20;5.10;99.90
21353;DHT22;10834;52.268;6.770;2022-12-07T10:20:22;5.50;99.90
21353;DHT22;10834;52.268;6.770;2022-12-07T10:23:15;5.80;99.90
21353;DHT22;10834;52.268;6.770;2022-12-07T10:26:30;6.00;99.90
21353;DHT22;10834;52.268;6.770;2022-12-07T10:29:30;6.10;99.90
21353;DHT22;10834;52.268;6.770;2022-12-07T10:35:28;6.00;99.90
21353;DHT22;10834;52.268;6.770;2022-12-07T10:38:16;5.90;99.90
21353;DHT22;10834;52.268;6.770;2022-12-07T10:41:06;5.80;99.90
21353;DHT22;10834;52.268;6.770;2022-12-07T10:43:54;5.80;99.90
21353;DHT22;10834;52.268;6.770;2022-12-07T10:46:49;5.70;99.90
21353;DHT22;10834;52.268;6.770;2022-12-07T11:05:37;6.50;99.90
21353;DHT22;10834;52.268;6.770;2022-12-07T11:12:00;6.80;99.90
21353;DHT22;10834;52.268;6.770;2022-12-07T11:17:45;7.20;99.90
21353;DHT22;10834;52.268;6.770;2022-12-07T11:20:45;7.50;99.90
21353;DHT22;10834;52.268;6.770;2022-12-07T11:24:06;7.90;99.90
21353;DHT22;10834;52.268;6.770;2022-12-07T11:30:19;8.00;99.90
21353;DHT22;10834;52.268;6.770;2022-12-07T11:33:10;7.70;99.90
21353;DHT22;10834;52.268;6.770;2022-12-07T11:39:19;7.40;99.90
21353;DHT22;10834;52.268;6.770;2022-12-07T11:45:15;7.30;99.90
21353;DHT22;10834;52.268;6.770;2022-12-07T11:48:24;7.10;99.90
21353;DHT22;10834;52.268;6.770;2022-12-07T11:51:16;6.90;99.90
21353;DHT22;10834;52.268;6.770;2022-12-07T11:54:32;6.60;99.90
21353;DHT22;10834;52.268;6.770;2022-12-07T11:57:37;6.40;99.90
21353;DHT22;10834;52.268;6.770;2022-12-07T12:00:25;6.40;99.90
21353;DHT22;10834;52.268;6.770;2022-12-07T12:03:15;6.40;99.90
21353;DHT22;10834;52.268;6.770;2022-12-07T12:06:03;6.50;99.90
21353;DHT22;10834;52.268;6.770;2022-12-07T12:11:44;6.80;99.90
21353;DHT22;10834;52.268;6.770;2022-12-07T12:20:54;6.70;99.90
21353;DHT22;10834;52.268;6.770;2022-12-07T12:23:48;6.70;99.90
21353;DHT22;10834;52.268;6.770;2022-12-07T12:26:37;6.80;99.90
21353;DHT22;10834;52.268;6.770;2022-12-07T12:32:34;6.70;99.90
21353;DHT22;10834;52.268;6.770;2022-12-07T12:35:35;6.70;99.90
21353;DHT22;10834;52.268;6.770;2022-12-07T12:38:32;6.60;99.90
21353;DHT22;10834;52.268;6.770;2022-12-07T12:47:41;6.60;99.90
21353;DHT22;10834;52.268;6.770;2022-12-07T12:50:36;6.70;99.90
21353;DHT22;10834;52.268;6.770;2022-12-07T12:53:25;6.60;99.90
21353;DHT22;10834;52.268;6.770;2022-12-07T12:56:25;6.60;99.90
21353;DHT22;10834;52.268;6.770;2022-12-07T13:02:28;6.50;99.90
21353;DHT22;10834;52.268;6.770;2022-12-07T13:05:27;6.40;99.90
21353;DHT22;10834;52.268;6.770;2022-12-07T13:08:25;6.30;99.90
21353;DHT22;10834;52.268;6.770;2022-12-07T13:11:32;6.30;99.90
21353;DHT22;10834;52.268;6.770;2022-12-07T13:26:38;6.10;99.90
21353;DHT22;10834;52.268;6.770;2022-12-07T13:29:25;6.20;99.90
21353;DHT22;10834;52.268;6.770;2022-12-07T13:32:24;6.10;99.90
21353;DHT22;10834;52.268;6.770;2022-12-07T13:35:29;6.10;99.90
21353;DHT22;10834;52.268;6.770;2022-12-07T13:38:29;6.10;99.90
21353;DHT22;10834;52.268;6.770;2022-12-07T13:41:18;6.10;99.90
21353;DHT22;10834;52.268;6.770;2022-12-07T13:44:15;6.00;99.90
21353;DHT22;10834;52.268;6.770;2022-12-07T13:50:01;5.80;99.90
21353;DHT22;10834;52.268;6.770;2022-12-07T13:52:48;5.70;99.90
21353;DHT22;10834;52.268;6.770;2022-12-07T13:55:34;5.60;99.90
21353;DHT22;10834;52.268;6.770;2022-12-07T13:58:22;5.50;99.90
21353;DHT22;10834;52.268;6.770;2022-12-07T14:01:08;5.50;99.90
21353;DHT22;10834;52.268;6.770;2022-12-07T14:03:54;5.50;99.90
21353;DHT22;10834;52.268;6.770;2022-12-07T14:06:51;5.50;99.90
21353;DHT22;10834;52.268;6.770;2022-12-07T14:09:37;5.50;99.90
21353;DHT22;10834;52.268;6.770;2022-12-07T14:12:24;5.50;99.90
21353;DHT22;10834;52.268;6.770;2022-12-07T14:15:23;5.60;99.90
21353;DHT22;10834;52.268;6.770;2022-12-07T14:18:36;5.60;99.90
21353;DHT22;10834;52.268;6.770;2022-12-07T14:21:25;5.70;99.90
21353;DHT22;10834;52.268;6.770;2022-12-07T14:24:17;5.70;99.90
21353;DHT22;10834;52.268;6.770;2022-12-07T14:27:20;5.70;99.90
21353;DHT22;10834;52.268;6.770;2022-12-07T14:30:16;5.70;99.90
21353;DHT22;10834;52.268;6.770;2022-12-07T14:33:04;5.80;99.90
21353;DHT22;10834;52.268;6.770;2022-12-07T14:35:51;5.80;99.90
21353;DHT22;10834;52.268;6.770;2022-12-07T14:38:41;5.80;99.90
21353;DHT22;10834;52.268;6.770;2022-12-07T14:41:27;5.70;99.90
21353;DHT22;10834;52.268;6.770;2022-12-07T14:44:33;5.70;99.90
21353;DHT22;10834;52.268;6.770;2022-12-07T14:47:19;5.70;99.90
21353;DHT22;10834;52.268;6.770;2022-12-07T14:50:05;5.70;99.90
21353;DHT22;10834;52.268;6.770;2022-12-07T14:52:56;5.60;99.90
21353;DHT22;10834;52.268;6.770;2022-12-07T14:55:43;5.50;99.90
21353;DHT22;10834;52.268;6.770;2022-12-07T14:58:30;5.50;99.90
21353;DHT22;10834;52.268;6.770;2022-12-07T15:01:16;5.40;99.90
21353;DHT22;10834;52.268;6.770;2022-12-07T15:04:02;5.40;99.90
21353;DHT22;10834;52.268;6.770;2022-12-07T15:07:01;5.30;99.90
21353;DHT22;10834;52.268;6.770;2022-12-07T15:09:48;5.30;99.90
21353;DHT22;10834;52.268;6.770;2022-12-07T15:12:34;5.20;99.90
21353;DHT22;10834;52.268;6.770;2022-12-07T15:15:20;5.20;99.90
21353;DHT22;10834;52.268;6.770;2022-12-07T15:18:06;5.20;99.90
21353;DHT22;10834;52.268;6.770;2022-12-07T15:20:53;5.10;99.90
21353;DHT22;10834;52.268;6.770;2022-12-07T15:23:39;5.10;99.90
21353;DHT22;10834;52.268;6.770;2022-12-07T15:26:25;5.10;99.90
21353;DHT22;10834;52.268;6.770;2022-12-07T15:29:11;5.00;99.90
21353;DHT22;10834;52.268;6.770;2022-12-07T15:31:57;5.00;99.90
21353;DHT22;10834;52.268;6.770;2022-12-07T15:34:43;4.90;99.90
21353;DHT22;10834;52.268;6.770;2022-12-07T15:37:29;4.90;99.90
21353;DHT22;10834;52.268;6.770;2022-12-07T15:40:16;4.80;99.90
21353;DHT22;10834;52.268;6.770;2022-12-07T15:43:02;4.80;99.90
21353;DHT22;10834;52.268;6.770;2022-12-07T15:45:49;4.70;99.90
21353;DHT22;10834;52.268;6.770;2022-12-07T15:48:36;4.70;99.90
21353;DHT22;10834;52.268;6.770;2022-12-07T15:51:22;4.70;99.90
21353;DHT22;10834;52.268;6.770;2022-12-07T15:54:19;4.80;99.90
21353;DHT22;10834;52.268;6.770;2022-12-07T15:57:05;4.80;99.90
21353;DHT22;10834;52.268;6.770;2022-12-07T15:59:52;4.80;99.90
21353;DHT22;10834;52.268;6.770;2022-12-07T16:02:38;4.90;99.90
21353;DHT22;10834;52.268;6.770;2022-12-07T16:05:24;4.90;99.90
21353;DHT22;10834;52.268;6.770;2022-12-07T16:08:10;5.00;99.90
21353;DHT22;10834;52.268;6.770;2022-12-07T16:10:56;4.90;99.90
21353;DHT22;10834;52.268;6.770;2022-12-07T16:13:43;4.90;99.90
21353;DHT22;10834;52.268;6.770;2022-12-07T16:16:29;4.80;99.90
21353;DHT22;10834;52.268;6.770;2022-12-07T16:19:15;4.80;99.90
21353;DHT22;10834;52.268;6.770;2022-12-07T16:22:02;4.80;99.90
21353;DHT22;10834;52.268;6.770;2022-12-07T16:24:48;4.80;99.90
21353;DHT22;10834;52.268;6.770;2022-12-07T16:27:34;4.80;99.90
21353;DHT22;10834;52.268;6.770;2022-12-07T16:30:20;4.80;99.90
21353;DHT22;10834;52.268;6.770;2022-12-07T16:33:06;4.70;99.90
21353;DHT22;10834;52.268;6.770;2022-12-07T16:35:52;4.80;99.90
21353;DHT22;10834;52.268;6.770;2022-12-07T16:38:39;4.70;99.90
21353;DHT22;10834;52.268;6.770;2022-12-07T16:41:25;4.70;99.90
21353;DHT22;10834;52.268;6.770;2022-12-07T16:44:12;4.60;99.90
21353;DHT22;10834;52.268;6.770;2022-12-07T16:46:59;4.60;99.90
21353;DHT22;10834;52.268;6.770;2022-12-07T16:49:46;4.50;99.90
21353;DHT22;10834;52.268;6.770;2022-12-07T16:52:33;4.50;99.90
21353;DHT22;10834;52.268;6.770;2022-12-07T16:55:19;4.50;99.90
21353;DHT22;10834;52.268;6.770;2022-12-07T16:58:06;4.40;99.90
21353;DHT22;10834;52.268;6.770;2022-12-07T17:00:52;4.40;99.90
21353;DHT22;10834;52.268;6.770;2022-12-07T17:03:38;4.40;99.90
21353;DHT22;10834;52.268;6.770;2022-12-07T17:06:25;4.30;99.90
21353;DHT22;10834;52.268;6.770;2022-12-07T17:09:12;4.40;99.90
21353;DHT22;10834;52.268;6.770;2022-12-07T17:11:58;4.40;99.90
21353;DHT22;10834;52.268;6.770;2022-12-07T17:14:44;4.50;99.90
21353;DHT22;10834;52.268;6.770;2022-12-07T17:17:54;4.50;99.90
21353;DHT22;10834;52.268;6.770;2022-12-07T17:20:40;4.50;99.90
21353;DHT22;10834;52.268;6.770;2022-12-07T17:23:26;4.50;99.90
21353;DHT22;10834;52.268;6.770;2022-12-07T17:26:19;4.50;99.90
21353;DHT22;10834;52.268;6.770;2022-12-07T17:29:06;4.50;99.90
21353;DHT22;10834;52.268;6.770;2022-12-07T17:31:53;4.40;99.90
21353;DHT22;10834;52.268;6.770;2022-12-07T17:34:39;4.40;99.90
21353;DHT22;10834;52.268;6.770;2022-12-07T17:37:27;4.40;99.90
21353;DHT22;10834;52.268;6.770;2022-12-07T17:40:14;4.50;99.90
21353;DHT22;10834;52.268;6.770;2022-12-07T17:43:00;4.50;99.90
21353;DHT22;10834;52.268;6.770;2022-12-07T17:45:46;4.50;99.90
21353;DHT22;10834;52.268;6.770;2022-12-07T17:48:32;4.50;99.90
21353;DHT22;10834;52.268;6.770;2022-12-07T17:51:19;4.50;99.90
21353;DHT22;10834;52.268;6.770;2022-12-07T17:54:23;4.50;99.90
21353;DHT22;10834;52.268;6.770;2022-12-07T17:57:09;4.50;99.90
21353;DHT22;10834;52.268;6.770;2022-12-07T17:59:55;4.50;99.90
21353;DHT22;10834;52.268;6.770;2022-12-07T18:02:42;4.40;99.90
21353;DHT22;10834;52.268;6.770;2022-12-07T18:05:28;4.50;99.90
21353;DHT22;10834;52.268;6.770;2022-12-07T18:08:14;4.40;99.90
21353;DHT22;10834;52.268;6.770;2022-12-07T18:11:00;4.50;99.90
21353;DHT22;10834;52.268;6.770;2022-12-07T18:13:46;4.60;99.90
21353;DHT22;10834;52.268;6.770;2022-12-07T18:16:33;4.60;99.90
21353;DHT22;10834;52.268;6.770;2022-12-07T18:19:20;4.60;99.90
21353;DHT22;10834;52.268;6.770;2022-12-07T18:22:06;4.50;99.90
21353;DHT22;10834;52.268;6.770;2022-12-07T18:24:52;4.50;99.90
21353;DHT22;10834;52.268;6.770;2022-12-07T18:27:38;4.50;99.90
21353;DHT22;10834;52.268;6.770;2022-12-07T18:30:25;4.40;99.90
21353;DHT22;10834;52.268;6.770;2022-12-07T18:33:11;4.40;99.90
21353;DHT22;10834;52.268;6.770;2022-12-07T18:35:59;4.30;99.90
21353;DHT22;10834;52.268;6.770;2022-12-07T18:38:45;4.30;99.90
21353;DHT22;10834;52.268;6.770;2022-12-07T18:41:31;4.30;99.90
21353;DHT22;10834;52.268;6.770;2022-12-07T18:44:17;4.30;99.90
21353;DHT22;10834;52.268;6.770;2022-12-07T18:47:03;4.20;99.90
21353;DHT22;10834;52.268;6.770;2022-12-07T18:49:49;4.20;99.90
21353;DHT22;10834;52.268;6.770;2022-12-07T18:52:35;4.20;99.90
21353;DHT22;10834;52.268;6.770;2022-12-07T18:55:21;4.30;99.90
21353;DHT22;10834;52.268;6.770;2022-12-07T18:58:07;4.30;99.90
21353;DHT22;10834;52.268;6.770;2022-12-07T19:00:57;4.30;99.90
21353;DHT22;10834;52.268;6.770;2022-12-07T19:03:43;4.30;99.90
21353;DHT22;10834;52.268;6.770;2022-12-07T19:06:29;4.30;99.90
21353;DHT22;10834;52.268;6.770;2022-12-07T19:09:16;4.30;99.90
21353;DHT22;10834;52.268;6.770;2022-12-07T19:12:02;4.30;99.90
21353;DHT22;10834;52.268;6.770;2022-12-07T19:14:50;4.30;99.90
21353;DHT22;10834;52.268;6.770;2022-12-07T19:17:36;4.30;99.90
21353;DHT22;10834;52.268;6.770;2022-12-07T19:20:22;4.30;99.90
21353;DHT22;10834;52.268;6.770;2022-12-07T19:23:08;4.30;99.90
21353;DHT22;10834;52.268;6.770;2022-12-07T19:25:54;4.30;99.90
21353;DHT22;10834;52.268;6.770;2022-12-07T19:28:40;4.30;99.90
21353;DHT22;10834;52.268;6.770;2022-12-07T19:31:26;4.30;99.90
21353;DHT22;10834;52.268;6.770;2022-12-07T19:34:14;4.20;99.90
21353;DHT22;10834;52.268;6.770;2022-12-07T19:37:01;4.20;99.90
21353;DHT22;10834;52.268;6.770;2022-12-07T19:39:47;4.20;99.90
21353;DHT22;10834;52.268;6.770;2022-12-07T19:42:36;4.20;99.90